createdAt,value
2018-02-20T00:01:05.776Z,43.10
2018-02-20T00:03:33.401Z,40.63
2018-02-20T00:06:01.165Z,44.93
2018-02-20T00:08:28.837Z,43.20
2018-02-20T00:10:56.454Z,42.40
2018-02-20T00:13:24.177Z,38.83
2018-02-20T00:15:51.820Z,40.40
2018-02-20T00:18:19.453Z,38.83
2018-02-20T00:20:47.843Z,39.20
2018-02-20T00:23:15.515Z,34.20
2018-02-20T00:25:43.169Z,36.57
2018-02-20T00:28:10.884Z,36.87
2018-02-20T00:30:38.692Z,37.83
2018-02-20T00:33:06.324Z,37.70
2018-02-20T00:35:34.195Z,37.07
2018-02-20T00:38:02.185Z,38.67
2018-02-20T00:40:29.829Z,35.03
2018-02-20T00:42:57.431Z,35.80
2018-02-20T00:45:25.041Z,35.30
2018-02-20T00:47:52.676Z,36.73
2018-02-20T00:50:20.946Z,36.10
2018-02-20T00:52:48.593Z,36.33
2018-02-20T00:55:16.221Z,34.37
2018-02-20T00:57:44.622Z,36.43
2018-02-20T01:00:13.550Z,34.80
2018-02-20T01:02:41.996Z,36.40
2018-02-20T01:05:09.628Z,37.63
2018-02-20T01:07:38.034Z,35.83
2018-02-20T01:10:05.628Z,34.53
2018-02-20T01:12:34.247Z,36.77
2018-02-20T01:15:02.711Z,36.17
2018-02-20T01:17:30.387Z,34.60
2018-02-20T01:19:58.821Z,35.83
2018-02-20T01:22:26.455Z,34.17
2018-02-20T01:24:54.226Z,35.30
2018-02-20T01:27:21.852Z,32.67
2018-02-20T01:29:50.278Z,33.83
2018-02-20T01:32:17.938Z,36.30
2018-02-20T01:34:45.666Z,35.73
2018-02-20T01:37:14.104Z,34.77
2018-02-20T01:39:41.782Z,36.77
2018-02-20T01:42:10.927Z,36.10
2018-02-20T01:44:38.542Z,37.63
2018-02-20T01:47:06.189Z,37.10
2018-02-20T01:49:33.835Z,35.40
2018-02-20T01:52:01.440Z,36.40
2018-02-20T01:54:29.844Z,34.50
2018-02-20T01:56:57.465Z,34.37
2018-02-20T01:59:26.064Z,37.13
2018-02-20T02:01:54.703Z,35.93
2018-02-20T02:04:22.385Z,34.87
2018-02-20T02:06:50.352Z,36.43
2018-02-20T02:09:18.449Z,36.43
2018-02-20T02:11:46.101Z,35.83
2018-02-20T02:14:13.790Z,36.33
2018-02-20T02:16:41.411Z,37.00
2018-02-20T02:19:09.814Z,38.33
2018-02-20T02:21:38.215Z,37.40
2018-02-20T02:24:05.847Z,35.97
2018-02-20T02:26:34.221Z,38.57
2018-02-20T02:29:02.615Z,36.13
2018-02-20T02:31:31.020Z,39.20
2018-02-20T02:33:58.654Z,35.97
2018-02-20T02:36:26.308Z,35.63
2018-02-20T02:38:54.744Z,36.60
2018-02-20T02:41:22.827Z,35.13
2018-02-20T02:43:50.613Z,36.50
2018-02-20T02:46:19.254Z,37.73
2018-02-20T02:48:46.869Z,37.17
2018-02-20T02:51:15.341Z,36.00
2018-02-20T02:53:42.954Z,37.00
2018-02-20T02:56:10.616Z,36.23
2018-02-20T02:58:38.225Z,35.67
2018-02-20T03:01:06.645Z,36.03
2018-02-20T03:03:34.245Z,35.37
2018-02-20T03:06:01.857Z,35.40
2018-02-20T03:08:29.503Z,36.90
2018-02-20T03:10:57.109Z,39.40
2018-02-20T03:13:24.734Z,36.43
2018-02-20T03:15:53.803Z,38.10
2018-02-20T03:18:22.269Z,37.77
2018-02-20T03:20:49.875Z,39.30
2018-02-20T03:23:17.478Z,39.80
2018-02-20T03:25:45.138Z,38.17
2018-02-20T03:28:12.736Z,35.03
2018-02-20T03:30:41.494Z,36.07
2018-02-20T03:33:09.130Z,38.10
2018-02-20T03:35:36.843Z,37.33
2018-02-20T03:38:05.357Z,38.13
2018-02-20T03:40:32.938Z,37.00
2018-02-20T03:43:00.598Z,35.90
2018-02-20T03:45:28.195Z,37.47
2018-02-20T03:47:56.593Z,37.13
2018-02-20T03:50:24.192Z,36.60
2018-02-20T03:52:52.664Z,37.53
2018-02-20T03:55:20.300Z,37.30
2018-02-20T03:57:47.936Z,36.07
2018-02-20T04:00:16.354Z,38.43
2018-02-20T04:02:43.956Z,38.40
2018-02-20T04:05:12.170Z,37.47
2018-02-20T04:07:39.794Z,41.27
2018-02-20T04:10:07.409Z,38.00
2018-02-20T04:12:35.604Z,34.97
2018-02-20T04:15:03.220Z,36.03
2018-02-20T04:17:31.169Z,37.63
2018-02-20T04:20:00.806Z,40.10
2018-02-20T04:22:28.398Z,37.87
2018-02-20T04:24:56.040Z,36.47
2018-02-20T04:27:23.653Z,38.23
2018-02-20T04:29:51.287Z,38.20
2018-02-20T04:32:18.913Z,36.70
2018-02-20T04:34:46.513Z,36.60
2018-02-20T04:37:14.193Z,38.93
2018-02-20T04:39:41.804Z,37.50
2018-02-20T04:42:09.427Z,35.80
2018-02-20T04:44:38.681Z,36.20
2018-02-20T04:47:06.370Z,35.73
2018-02-20T04:49:33.986Z,37.40
2018-02-20T04:52:01.676Z,37.73
2018-02-20T04:54:30.440Z,37.23
2018-02-20T04:56:58.100Z,37.23
2018-02-20T04:59:25.865Z,38.07
2018-02-20T05:01:53.513Z,38.53
2018-02-20T05:04:21.200Z,36.80
2018-02-20T05:06:48.896Z,38.97
2018-02-20T05:09:16.552Z,37.27
2018-02-20T05:11:44.233Z,36.67
2018-02-20T05:14:12.656Z,37.23
2018-02-20T05:16:40.328Z,38.20
2018-02-20T05:19:08.786Z,41.83
2018-02-20T05:21:36.423Z,40.33
2018-02-20T05:24:04.812Z,38.73
2018-02-20T05:26:32.435Z,38.83
2018-02-20T05:29:00.089Z,39.37
2018-02-20T05:31:27.699Z,40.77
2018-02-20T05:33:55.356Z,38.80
2018-02-20T05:36:22.983Z,40.47
2018-02-20T05:38:50.689Z,43.23
2018-02-20T05:41:18.301Z,38.70
2018-02-20T05:43:45.956Z,39.87
2018-02-20T05:46:13.600Z,40.90
2018-02-20T05:48:41.201Z,37.90
2018-02-20T05:51:09.719Z,39.60
2018-02-20T05:53:37.332Z,39.70
2018-02-20T05:56:05.003Z,44.93
2018-02-20T05:58:33.407Z,43.60
2018-02-20T06:01:01.020Z,41.43
2018-02-20T06:03:28.645Z,38.67
2018-02-20T06:05:56.303Z,39.33
2018-02-20T06:08:23.956Z,40.03
2018-02-20T06:10:51.568Z,39.67
2018-02-20T06:13:19.247Z,40.30
2018-02-20T06:15:49.005Z,38.27
2018-02-20T06:18:16.645Z,41.03
2018-02-20T06:20:44.299Z,40.57
2018-02-20T06:23:11.956Z,40.87
2018-02-20T06:25:40.410Z,40.33
2018-02-20T06:28:08.043Z,41.87
2018-02-20T06:30:35.697Z,40.50
2018-02-20T06:33:03.351Z,41.53
2018-02-20T06:35:30.963Z,44.40
2018-02-20T06:37:59.485Z,43.53
2018-02-20T06:40:27.113Z,44.77
2018-02-20T06:42:55.495Z,42.93
2018-02-20T06:45:24.905Z,43.97
2018-02-20T06:47:52.523Z,43.40
2018-02-20T06:50:20.149Z,43.73
2018-02-20T06:52:47.761Z,47.23
2018-02-20T06:55:15.410Z,46.67
2018-02-20T06:57:43.058Z,45.40
2018-02-20T07:00:10.681Z,43.87
2018-02-20T07:02:38.294Z,41.53
2018-02-20T07:05:05.915Z,44.70
2018-02-20T07:07:33.574Z,44.97
2018-02-20T07:10:01.217Z,43.10
2018-02-20T07:12:28.846Z,43.07
2018-02-20T07:14:56.504Z,43.90
2018-02-20T07:17:24.146Z,44.37
2018-02-20T07:19:52.909Z,44.30
2018-02-20T07:22:20.659Z,43.00
2018-02-20T07:24:48.295Z,42.73
2018-02-20T07:27:16.704Z,42.13
2018-02-20T07:29:44.471Z,40.23
2018-02-20T07:32:12.106Z,44.03
2018-02-20T07:34:40.529Z,41.27
2018-02-20T07:37:08.127Z,41.17
2018-02-20T07:39:35.850Z,40.83
2018-02-20T07:42:03.490Z,41.83
2018-02-20T07:44:31.142Z,42.23
2018-02-20T07:46:59.076Z,43.03
2018-02-20T07:49:27.480Z,44.33
2018-02-20T07:51:55.362Z,41.73
2018-02-20T07:54:23.089Z,41.00
2018-02-20T07:56:50.858Z,41.97
2018-02-20T07:59:18.477Z,42.17
2018-02-20T08:01:46.220Z,41.50
2018-02-20T08:04:13.841Z,44.07
2018-02-20T08:06:41.645Z,42.67
2018-02-20T08:09:09.273Z,40.27
2018-02-20T08:11:36.901Z,40.60
2018-02-20T08:14:04.568Z,39.33
2018-02-20T08:16:32.181Z,40.07
2018-02-20T08:18:59.794Z,37.43
2018-02-20T08:21:27.493Z,36.40
2018-02-20T08:23:55.197Z,35.83
2018-02-20T08:26:22.834Z,37.80
2018-02-20T08:28:50.689Z,37.57
2018-02-20T08:31:18.409Z,38.97
2018-02-20T08:33:46.697Z,38.87
2018-02-20T08:36:15.094Z,38.30
2018-02-20T08:38:42.726Z,38.70
2018-02-20T08:41:10.418Z,37.00
2018-02-20T08:43:38.027Z,33.27
2018-02-20T08:46:05.958Z,37.10
2018-02-20T08:48:33.569Z,33.90
2018-02-20T08:51:02.034Z,33.17
2018-02-20T08:53:29.696Z,32.53
2018-02-20T08:55:57.439Z,29.50
2018-02-20T08:58:25.074Z,32.50
2018-02-20T09:00:52.689Z,36.00
2018-02-20T09:03:20.346Z,34.03
2018-02-20T09:05:47.991Z,35.40
2018-02-20T09:08:15.634Z,42.90
2018-02-20T09:10:43.246Z,39.90
2018-02-20T09:13:11.007Z,40.40
2018-02-20T09:15:38.658Z,42.70
2018-02-20T09:18:06.387Z,42.47
2018-02-20T09:20:33.982Z,39.63
2018-02-20T09:23:01.788Z,38.67
2018-02-20T09:25:29.406Z,39.00
2018-02-20T09:27:57.106Z,36.33
2018-02-20T09:30:25.500Z,38.50
2018-02-20T09:32:53.383Z,37.27
2018-02-20T09:35:21.041Z,36.63
2018-02-20T09:37:48.664Z,33.57
2018-02-20T09:40:17.093Z,32.77
2018-02-20T09:42:44.742Z,31.77
2018-02-20T09:45:12.386Z,32.63
2018-02-20T09:47:40.016Z,30.90
2018-02-20T09:50:07.668Z,33.67
2018-02-20T09:52:35.256Z,33.63
2018-02-20T09:55:03.274Z,35.13
2018-02-20T09:57:31.411Z,32.40
2018-02-20T09:59:59.094Z,31.00
2018-02-20T10:02:26.749Z,32.83
2018-02-20T10:04:55.592Z,32.43
2018-02-20T10:07:23.229Z,33.87
2018-02-20T10:09:50.863Z,32.37
2018-02-20T10:12:19.259Z,34.70
2018-02-20T10:14:46.914Z,32.40
2018-02-20T10:17:14.586Z,32.33
2018-02-20T10:19:42.546Z,33.20
2018-02-20T10:22:10.170Z,33.30
2018-02-20T10:24:37.830Z,31.03
2018-02-20T10:27:05.715Z,27.90
2018-02-20T10:29:33.310Z,26.87
2018-02-20T10:32:00.954Z,26.47
2018-02-20T10:34:29.342Z,27.73
2018-02-20T10:36:57.024Z,25.27
2018-02-20T10:39:24.700Z,25.73
2018-02-20T10:41:53.146Z,26.60
2018-02-20T10:44:20.745Z,27.43
2018-02-20T10:46:48.856Z,28.57
2018-02-20T10:49:16.470Z,24.83
2018-02-20T10:51:44.088Z,26.47
2018-02-20T10:54:11.716Z,26.63
2018-02-20T10:56:39.384Z,26.73
2018-02-20T10:59:07.029Z,28.10
2018-02-20T11:01:35.401Z,28.87
2018-02-20T11:04:03.088Z,25.07
2018-02-20T11:06:30.736Z,25.40
2018-02-20T11:08:59.143Z,26.27
2018-02-20T11:11:26.776Z,25.97
2018-02-20T11:13:54.431Z,26.43
2018-02-20T11:16:22.809Z,25.73
2018-02-20T11:18:50.811Z,27.63
2018-02-20T11:21:19.233Z,27.77
2018-02-20T11:23:46.822Z,26.83
2018-02-20T11:26:15.227Z,27.13
2018-02-20T11:28:43.517Z,28.40
2018-02-20T11:31:11.934Z,28.73
2018-02-20T11:33:39.577Z,32.50
2018-02-20T11:36:08.645Z,30.03
2018-02-20T11:38:36.317Z,33.47
2018-02-20T11:41:04.027Z,32.73
2018-02-20T11:43:32.434Z,30.17
2018-02-20T11:46:00.085Z,29.63
2018-02-20T11:48:27.742Z,29.87
2018-02-20T11:50:55.383Z,30.50
2018-02-20T11:53:23.801Z,30.50
2018-02-20T11:55:51.519Z,30.97
2018-02-20T11:58:19.961Z,29.43
2018-02-20T12:00:48.339Z,31.03
2018-02-20T12:03:16.828Z,32.20
2018-02-20T12:05:44.502Z,32.87
2018-02-20T12:08:12.163Z,30.07
2018-02-20T12:10:39.757Z,31.50
2018-02-20T12:13:08.179Z,32.13
2018-02-20T12:15:35.794Z,29.43
2018-02-20T12:18:04.201Z,29.33
2018-02-20T12:20:31.982Z,29.73
2018-02-20T12:22:59.594Z,29.50
2018-02-20T12:25:28.006Z,30.50
2018-02-20T12:27:56.522Z,30.17
2018-02-20T12:30:25.044Z,29.80
2018-02-20T12:32:53.431Z,30.07
2018-02-20T12:35:21.035Z,26.70
2018-02-20T12:37:48.738Z,25.33
2018-02-20T12:40:17.140Z,27.33
2018-02-20T12:42:44.806Z,28.97
2018-02-20T12:45:12.480Z,27.90
2018-02-20T12:47:40.959Z,27.07
2018-02-20T12:50:08.650Z,30.13
2018-02-20T12:52:36.438Z,31.60
2018-02-20T12:55:04.833Z,32.23
2018-02-20T12:57:33.251Z,30.83
2018-02-20T13:00:00.931Z,32.07
2018-02-20T13:02:28.558Z,33.53
2018-02-20T13:04:56.192Z,34.00
2018-02-20T13:07:24.621Z,35.07
2018-02-20T13:09:52.257Z,35.67
2018-02-20T13:12:19.920Z,33.67
2018-02-20T13:14:47.535Z,33.47
2018-02-20T13:17:15.203Z,34.13
2018-02-20T13:19:42.949Z,36.10
2018-02-20T13:22:10.580Z,35.33
2018-02-20T13:24:38.212Z,34.77
2018-02-20T13:27:05.894Z,36.20
2018-02-20T13:29:33.534Z,35.70
2018-02-20T13:32:01.148Z,36.10
2018-02-20T13:34:28.783Z,35.10
2018-02-20T13:36:56.377Z,35.87
2018-02-20T13:39:24.110Z,36.37
2018-02-20T13:41:51.796Z,37.10
2018-02-20T13:44:19.457Z,37.30
2018-02-20T13:46:47.108Z,37.13
2018-02-20T13:49:14.847Z,37.27
2018-02-20T13:51:42.542Z,38.47
2018-02-20T13:54:10.242Z,37.57
2018-02-20T13:56:37.964Z,36.13
2018-02-20T13:59:05.563Z,37.53
2018-02-20T14:01:35.089Z,38.33
2018-02-20T14:04:03.022Z,33.57
2018-02-20T14:06:30.622Z,34.73
2018-02-20T14:08:59.417Z,33.53
2018-02-20T14:11:27.790Z,30.40
2018-02-20T14:13:56.329Z,29.00
2018-02-20T14:16:23.940Z,34.27
2018-02-20T14:18:52.366Z,31.70
2018-02-20T14:21:20.088Z,29.67
2018-02-20T14:23:48.561Z,31.23
2018-02-20T14:26:17.002Z,29.87
2018-02-20T14:28:44.687Z,31.90
2018-02-20T14:31:12.367Z,33.93
2018-02-20T14:33:40.783Z,33.23
2018-02-20T14:36:09.884Z,34.87
2018-02-20T14:38:38.046Z,32.70
2018-02-20T14:41:05.678Z,33.23
2018-02-20T14:43:34.126Z,32.00
2018-02-20T14:46:01.752Z,33.90
2018-02-20T14:48:30.276Z,34.10
2018-02-20T14:50:57.902Z,33.87
2018-02-20T14:53:27.300Z,35.57
2018-02-20T14:55:54.936Z,37.20
2018-02-20T14:58:22.644Z,35.13
2018-02-20T15:00:50.286Z,36.03
2018-02-20T15:03:17.927Z,36.80
2018-02-20T15:05:45.604Z,36.07
2018-02-20T15:08:13.302Z,38.57
2018-02-20T15:10:41.007Z,38.67
2018-02-20T15:13:08.669Z,37.30
2018-02-20T15:15:36.336Z,41.03
2018-02-20T15:18:04.047Z,39.77
2018-02-20T15:20:31.739Z,37.83
2018-02-20T15:22:59.409Z,39.07
2018-02-20T15:25:27.922Z,39.43
2018-02-20T15:27:55.561Z,39.47
2018-02-20T15:30:23.244Z,37.57
2018-02-20T15:32:50.910Z,35.37
2018-02-20T15:35:18.693Z,35.33
2018-02-20T15:37:46.537Z,32.53
2018-02-20T15:40:14.200Z,32.33
2018-02-20T15:42:43.004Z,35.53
2018-02-20T15:45:10.660Z,34.93
2018-02-20T15:47:38.355Z,35.60
2018-02-20T15:50:05.963Z,35.60
2018-02-20T15:52:33.727Z,37.27
2018-02-20T15:55:01.353Z,36.93
2018-02-20T15:57:29.876Z,36.80
2018-02-20T15:59:57.542Z,40.17
2018-02-20T16:02:25.173Z,39.93
2018-02-20T16:04:52.930Z,46.17
2018-02-20T16:07:21.365Z,38.20
2018-02-20T16:09:49.732Z,54.03
2018-02-20T16:12:17.363Z,39.67
2018-02-20T16:14:45.052Z,39.20
2018-02-20T16:17:12.699Z,40.00
2018-02-20T16:19:40.345Z,40.83
2018-02-20T16:22:07.991Z,37.00
2018-02-20T16:24:36.500Z,40.10
2018-02-20T16:27:04.217Z,39.47
2018-02-20T16:29:32.615Z,42.20
2018-02-20T16:32:01.035Z,41.17
2018-02-20T16:34:28.838Z,42.43
2018-02-20T16:36:56.894Z,40.00
2018-02-20T16:39:24.556Z,42.80
2018-02-20T16:41:52.215Z,43.87
2018-02-20T16:44:19.920Z,42.93
2018-02-20T16:46:47.685Z,42.43
2018-02-20T16:49:15.654Z,45.27
2018-02-20T16:51:44.377Z,43.47
2018-02-20T16:54:12.828Z,44.17
2018-02-20T16:56:40.563Z,43.40
2018-02-20T16:59:09.471Z,42.63
2018-02-20T17:01:37.161Z,43.47
2018-02-20T17:04:04.808Z,43.17
2018-02-20T17:06:32.489Z,41.87
2018-02-20T17:09:00.949Z,44.37
2018-02-20T17:11:28.650Z,40.83
2018-02-20T17:13:58.553Z,41.00
2018-02-20T17:16:26.934Z,42.07
2018-02-20T17:18:55.407Z,41.50
2018-02-20T17:21:23.816Z,42.27
2018-02-20T17:23:51.588Z,41.43
2018-02-20T17:26:19.233Z,42.87
2018-02-20T17:28:46.912Z,41.27
2018-02-20T17:31:15.863Z,40.93
2018-02-20T17:33:45.796Z,42.10
2018-02-20T17:36:13.416Z,40.70
2018-02-20T17:38:41.090Z,42.30
2018-02-20T17:41:08.798Z,39.63
2018-02-20T17:43:36.425Z,41.73
2018-02-20T17:46:04.863Z,41.70
2018-02-20T17:48:32.546Z,40.20
2018-02-20T17:51:00.266Z,39.60
2018-02-20T17:53:28.181Z,41.03
2018-02-20T17:55:55.846Z,39.67
2018-02-20T17:58:23.583Z,49.43
2018-02-20T18:00:51.403Z,44.07
2018-02-20T18:03:19.089Z,41.63
2018-02-20T18:05:46.816Z,42.23
2018-02-20T18:08:15.844Z,40.00
2018-02-20T18:10:43.511Z,42.20
2018-02-20T18:13:11.280Z,40.20
2018-02-20T18:15:38.941Z,41.97
2018-02-20T18:18:07.248Z,41.17
2018-02-20T18:20:34.926Z,43.67
2018-02-20T18:23:03.206Z,43.10
2018-02-20T18:25:31.657Z,41.10
2018-02-20T18:27:59.452Z,44.10
2018-02-20T18:30:28.235Z,44.40
2018-02-20T18:32:55.948Z,67.90
2018-02-20T18:35:23.605Z,43.57
2018-02-20T18:37:51.464Z,44.13
2018-02-20T18:40:19.775Z,39.73
2018-02-20T18:42:47.883Z,42.80
2018-02-20T18:45:16.072Z,42.47
2018-02-20T18:47:43.750Z,45.93
2018-02-20T18:50:11.482Z,47.30
2018-02-20T18:52:40.801Z,46.10
2018-02-20T18:55:08.635Z,45.23
2018-02-20T18:57:36.408Z,44.93
2018-02-20T19:00:04.951Z,45.60
2018-02-20T19:02:32.633Z,44.80
2018-02-20T19:05:00.328Z,46.90
2018-02-20T19:07:28.910Z,46.40
2018-02-20T19:09:57.537Z,50.70
2018-02-20T19:12:25.483Z,52.93
2018-02-20T19:14:53.281Z,47.17
2018-02-20T19:17:21.010Z,50.87
2018-02-20T19:19:48.895Z,52.77
2018-02-20T19:22:17.462Z,51.77
2018-02-20T19:24:45.792Z,47.97
2018-02-20T19:27:15.232Z,49.73
2018-02-20T19:29:44.067Z,50.17
2018-02-20T19:32:12.243Z,49.63
2018-02-20T19:34:40.366Z,48.90
2018-02-20T19:37:08.248Z,49.50
2018-02-20T19:39:36.647Z,47.80
2018-02-20T19:42:04.503Z,47.43
2018-02-20T19:44:32.534Z,46.83
2018-02-20T19:47:00.466Z,48.23
2018-02-20T19:49:28.400Z,46.80
2018-02-20T19:51:56.869Z,50.40
2018-02-20T19:54:26.163Z,50.93
2018-02-20T19:56:54.665Z,50.20
2018-02-20T19:59:22.573Z,50.10
2018-02-20T20:01:50.359Z,50.47
2018-02-20T20:04:18.387Z,46.47
2018-02-20T20:06:46.371Z,49.87
2018-02-20T20:09:14.177Z,48.03
2018-02-20T20:11:42.660Z,49.07
2018-02-20T20:14:11.955Z,52.47
2018-02-20T20:16:40.765Z,49.60
2018-02-20T20:19:09.271Z,47.93
2018-02-20T20:21:36.979Z,45.03
2018-02-20T20:24:04.749Z,50.17
2018-02-20T20:26:32.435Z,47.80
2018-02-20T20:29:00.206Z,48.97
2018-02-20T20:31:27.914Z,48.80
2018-02-20T20:33:55.942Z,49.67
2018-02-20T20:36:23.766Z,45.97
2018-02-20T20:38:51.454Z,43.37
2018-02-20T20:41:20.270Z,47.40
2018-02-20T20:43:48.201Z,44.57
2018-02-20T20:46:16.728Z,45.30
2018-02-20T20:48:44.560Z,48.17
2018-02-20T20:51:13.155Z,49.07
2018-02-20T20:53:41.468Z,47.87
2018-02-20T20:56:09.362Z,48.60
2018-02-20T20:58:37.097Z,49.03
2018-02-20T21:01:04.814Z,47.83
2018-02-20T21:03:33.271Z,46.80
2018-02-20T21:06:01.357Z,46.20
2018-02-20T21:08:29.820Z,47.90
2018-02-20T21:10:57.496Z,47.53
2018-02-20T21:13:26.109Z,47.33
2018-02-20T21:15:53.873Z,48.00
2018-02-20T21:18:21.667Z,46.60
2018-02-20T21:20:49.386Z,46.70
2018-02-20T21:23:17.032Z,48.57
2018-02-20T21:25:45.455Z,47.43
2018-02-20T21:28:13.091Z,47.53
2018-02-20T21:30:40.809Z,46.67
2018-02-20T21:33:08.472Z,46.90
2018-02-20T21:35:36.175Z,47.30
2018-02-20T21:38:03.886Z,43.17
2018-02-20T21:40:31.528Z,42.93
2018-02-20T21:42:59.338Z,41.03
2018-02-20T21:45:26.993Z,41.33
2018-02-20T21:47:54.665Z,40.03
2018-02-20T21:50:23.086Z,39.17
2018-02-20T21:52:50.755Z,39.73
2018-02-20T21:55:18.433Z,38.87
2018-02-20T21:57:46.092Z,41.20
2018-02-20T22:00:13.737Z,39.27
2018-02-20T22:02:42.116Z,39.23
2018-02-20T22:05:09.816Z,37.47
2018-02-20T22:07:37.487Z,38.77
2018-02-20T22:10:05.177Z,38.33
2018-02-20T22:12:32.802Z,39.17
2018-02-20T22:15:00.799Z,39.90
2018-02-20T22:17:28.529Z,40.40
2018-02-20T22:19:56.195Z,38.33
2018-02-20T22:22:23.862Z,39.47
2018-02-20T22:24:53.574Z,39.63
2018-02-20T22:27:21.230Z,39.33
2018-02-20T22:29:48.877Z,39.00
2018-02-20T22:32:17.366Z,40.33
2018-02-20T22:34:45.020Z,36.23
2018-02-20T22:37:12.755Z,41.50
2018-02-20T22:39:40.395Z,39.07
2018-02-20T22:42:08.078Z,38.70
2018-02-20T22:44:35.730Z,36.20
2018-02-20T22:47:03.463Z,37.17
2018-02-20T22:49:31.899Z,40.13
2018-02-20T22:51:59.993Z,40.13
2018-02-20T22:54:27.616Z,38.47
2018-02-20T22:56:55.283Z,37.30
2018-02-20T22:59:22.981Z,38.23
2018-02-20T23:01:52.421Z,38.53
2018-02-20T23:04:20.083Z,36.93
2018-02-20T23:06:47.785Z,37.03
2018-02-20T23:09:15.473Z,40.00
2018-02-20T23:11:47.688Z,40.50
2018-02-20T23:14:15.347Z,38.23
2018-02-20T23:16:42.984Z,39.80
2018-02-20T23:19:10.664Z,37.87
2018-02-20T23:21:38.344Z,40.33
2018-02-20T23:24:06.339Z,37.73
2018-02-20T23:26:33.950Z,40.67
2018-02-20T23:29:01.584Z,40.87
2018-02-20T23:31:29.993Z,39.23
2018-02-20T23:33:57.697Z,39.50
2018-02-20T23:36:26.161Z,37.73
2018-02-20T23:38:53.850Z,39.70
2018-02-20T23:41:21.523Z,39.93
2018-02-20T23:43:49.135Z,39.57
2018-02-20T23:46:16.815Z,40.20
2018-02-20T23:48:44.456Z,40.57
2018-02-20T23:51:18.017Z,40.23
2018-02-20T23:53:46.904Z,40.63
2018-02-20T23:56:15.304Z,37.17
2018-02-20T23:58:42.941Z,40.93
